Time;durP1;ratioP1;P1;durP2;ratioP2;P2;SDS_P1;SDS_P2;PMS_P1;PMS_P2;Temp;Humidity;BMP_temperature;BMP_pressure;BME280_temperature;BME280_humidity;BME280_pressure;Samples;Min_cycle;Max_cycle;Signal;HPM_P1;HPM_P2
2020/12/15 00:02:01;;;;;;;31.95;15.07;;;1.70;99.90;;;;;;4733997;30;20147;-80
2020/12/15 00:04:28;;;;;;;31.98;15.98;;;1.70;99.90;;;;;;4734369;30;20521;-81
2020/12/15 00:06:55;;;;;;;29.70;14.90;;;1.70;99.90;;;;;;4733542;30;20076;-80
2020/12/15 00:09:22;;;;;;;39.85;15.43;;;1.70;99.90;;;;;;4732115;30;20056;-80
2020/12/15 00:11:57;;;;;;;30.85;14.38;;;1.70;99.90;;;;;;4740776;30;20051;-80
2020/12/15 00:14:29;;;;;;;44.30;14.38;;;1.70;99.90;;;;;;4739672;30;20056;-80
2020/12/15 00:17:00;;;;;;;45.40;14.15;;;1.60;99.90;;;;;;4754127;30;20427;-80
2020/12/15 00:19:27;;;;;;;44.25;15.15;;;1.60;99.90;;;;;;4753595;30;20071;-80
2020/12/15 00:21:55;;;;;;;41.85;14.88;;;1.50;99.90;;;;;;4739321;30;20105;-80
2020/12/15 00:24:22;;;;;;;60.58;13.80;;;1.40;99.90;;;;;;4747238;30;20059;-80
2020/12/15 00:26:50;;;;;;;43.97;13.18;;;1.40;99.90;;;;;;4739655;30;20058;-80
2020/12/15 00:29:22;;;;;;;29.80;12.35;;;1.40;99.90;;;;;;4730378;30;20170;-80
2020/12/15 00:31:54;;;;;;;38.00;13.15;;;1.40;99.90;;;;;;4736324;30;20071;-80
2020/12/15 00:34:21;;;;;;;16.30;10.52;;;1.40;99.90;;;;;;4722060;30;20143;-80
2020/12/15 00:36:50;;;;;;;13.55;9.27;;;1.30;99.90;;;;;;4722102;30;20059;-80
2020/12/15 00:39:22;;;;;;;12.85;8.98;;;1.30;99.90;;;;;;4721887;30;20072;-80
2020/12/15 00:41:55;;;;;;;12.82;9.30;;;1.30;99.90;;;;;;4722365;30;20048;-80
2020/12/15 00:44:27;;;;;;;11.18;9.23;;;1.30;99.90;;;;;;4736111;30;20079;-80
2020/12/15 00:47:03;;;;;;;12.70;8.25;;;1.30;99.90;;;;;;4722658;30;20067;-80
2020/12/15 00:49:31;;;;;;;12.20;8.65;;;1.20;99.90;;;;;;4735519;30;20456;-80
2020/12/15 00:51:59;;;;;;;12.25;8.55;;;1.20;99.90;;;;;;4736175;30;20106;-80
2020/12/15 00:54:27;;;;;;;14.10;9.23;;;1.20;99.90;;;;;;4721143;30;20053;-80
2020/12/15 00:56:59;;;;;;;14.82;8.95;;;1.20;99.90;;;;;;4721963;30;20508;-80
2020/12/15 00:59:27;;;;;;;13.48;8.27;;;1.10;99.90;;;;;;4734792;30;20052;-80
2020/12/15 01:01:59;;;;;;;14.98;9.85;;;1.10;99.90;;;;;;4721545;30;20463;-80
2020/12/15 01:04:29;;;;;;;22.25;11.30;;;1.10;99.90;;;;;;4735846;30;20052;-80
2020/12/15 01:06:58;;;;;;;23.05;10.20;;;1.10;99.90;;;;;;4736112;30;20463;-80
2020/12/15 01:09:25;;;;;;;18.88;9.88;;;1.00;99.90;;;;;;4735264;30;20133;-80
2020/12/15 01:11:53;;;;;;;19.08;9.77;;;1.00;99.90;;;;;;4721604;30;20056;-80
2020/12/15 01:14:25;;;;;;;18.60;10.40;;;0.90;99.90;;;;;;4721601;30;20135;-80
2020/12/15 01:16:55;;;;;;;18.75;10.43;;;0.90;99.90;;;;;;4735622;30;20060;-80
2020/12/15 01:19:23;;;;;;;16.85;9.90;;;0.90;99.90;;;;;;4734609;30;20525;-80
2020/12/15 01:21:51;;;;;;;14.32;9.90;;;0.90;99.90;;;;;;4735913;30;20360;-80
2020/12/15 01:24:27;;;;;;;14.43;9.30;;;1.00;99.90;;;;;;4722272;30;20057;-80
2020/12/15 01:27:18;;;;;;;16.13;10.60;;;1.00;99.90;;;;;;4738922;30;20552;-80
2020/12/15 01:29:57;;;;;;;14.45;10.18;;;1.00;99.90;;;;;;4721729;30;20110;-80
2020/12/15 01:32:44;;;;;;;11.52;9.13;;;1.00;99.90;;;;;;4733456;30;20455;-80
2020/12/15 01:35:12;;;;;;;13.55;9.65;;;1.00;99.90;;;;;;4735367;30;20052;-80
2020/12/15 01:37:46;;;;;;;13.40;9.70;;;1.10;99.90;;;;;;4735005;30;20060;-80
2020/12/15 01:40:19;;;;;;;15.73;9.95;;;1.10;99.90;;;;;;4715473;30;20122;-80
2020/12/15 01:42:46;;;;;;;13.10;9.00;;;1.00;99.90;;;;;;4735282;30;20058;-80
2020/12/15 01:45:14;;;;;;;11.23;8.25;;;1.00;99.90;;;;;;4735116;30;20094;-80
2020/12/15 01:47:42;;;;;;;13.57;8.80;;;1.00;99.90;;;;;;4720169;30;20143;-80
2020/12/15 01:50:10;;;;;;;13.38;9.45;;;1.10;99.90;;;;;;4720766;30;20048;-80
2020/12/15 01:52:44;;;;;;;11.82;8.32;;;1.10;99.90;;;;;;4721517;30;20539;-80
2020/12/15 01:55:18;;;;;;;14.90;9.13;;;1.10;99.90;;;;;;4734926;30;20154;-80
2020/12/15 01:58:03;;;;;;;11.90;9.73;;;1.10;99.90;;;;;;4722285;30;20548;-80
2020/12/15 02:00:35;;;;;;;14.40;9.70;;;1.10;99.90;;;;;;4720240;30;20067;-80
2020/12/15 02:03:18;;;;;;;10.35;7.93;;;1.10;99.90;;;;;;4734260;30;20263;-80
2020/12/15 02:06:04;;;;;;;11.15;8.60;;;1.00;99.90;;;;;;4737432;30;20067;-80
2020/12/15 02:08:47;;;;;;;11.05;8.68;;;1.00;99.90;;;;;;4732583;30;20580;-80
2020/12/15 02:11:16;;;;;;;9.30;7.22;;;1.00;99.90;;;;;;4733287;30;20056;-80
2020/12/15 02:13:50;;;;;;;;;;;1.10;99.90;;;;;;4734242;30;20517;-80
2020/12/15 02:16:18;;;;;;;11.07;8.77;;;1.10;99.90;;;;;;4718853;30;20240;-80
2020/12/15 02:18:51;;;;;;;12.30;8.73;;;1.10;99.90;;;;;;4718813;30;20048;-80
2020/12/15 02:21:26;;;;;;;12.57;9.60;;;1.10;99.90;;;;;;4719795;30;20398;-80
2020/12/15 02:23:59;;;;;;;10.50;8.25;;;1.10;99.90;;;;;;4733036;30;20052;-80
2020/12/15 02:26:38;;;;;;;11.75;8.73;;;1.10;99.90;;;;;;4720227;30;20133;-80
2020/12/15 02:29:06;;;;;;;8.50;7.15;;;1.10;99.90;;;;;;4718007;30;20048;-80
2020/12/15 02:31:39;;;;;;;9.25;7.43;;;1.10;99.90;;;;;;4732998;30;20052;-80
2020/12/15 02:34:06;;;;;;;9.27;7.93;;;1.10;99.90;;;;;;4733078;30;20052;-80
2020/12/15 02:36:34;;;;;;;9.52;7.55;;;1.10;99.90;;;;;;4733718;30;20090;-80
2020/12/15 02:39:23;;;;;;;9.02;7.88;;;1.10;99.90;;;;;;4732787;30;20390;-80
2020/12/15 02:42:04;;;;;;;11.60;8.38;;;1.20;99.90;;;;;;4733608;30;20052;-80
2020/12/15 02:44:32;;;;;;;10.35;8.00;;;1.20;99.90;;;;;;4718862;30;20060;-80
2020/12/15 02:47:11;;;;;;;11.27;8.00;;;1.30;99.90;;;;;;4719648;30;20405;-80
2020/12/15 02:49:42;;;;;;;12.15;8.52;;;1.20;99.90;;;;;;4732541;30;20060;-80
2020/12/15 02:52:15;;;;;;;12.38;8.68;;;1.30;99.90;;;;;;4733696;30;20099;-79
2020/12/15 02:54:48;;;;;;;11.70;8.50;;;1.20;99.90;;;;;;4720491;30;20135;-80
2020/12/15 02:57:16;;;;;;;12.27;8.63;;;1.20;99.90;;;;;;4717533;30;20044;-80
2020/12/15 02:59:50;;;;;;;15.18;10.20;;;1.20;99.90;;;;;;4732083;30;20140;-80
2020/12/15 03:02:23;;;;;;;16.77;10.82;;;1.20;99.90;;;;;;4732718;30;20110;-80
2020/12/15 03:04:56;;;;;;;23.60;13.55;;;1.20;99.90;;;;;;4732679;30;20052;-80
2020/12/15 03:07:28;;;;;;;18.48;11.55;;;1.20;99.90;;;;;;4732545;30;20086;-80
2020/12/15 03:10:06;;;;;;;18.02;10.82;;;1.20;99.90;;;;;;4718561;30;20087;-80
2020/12/15 03:12:44;;;;;;;11.00;8.35;;;1.20;99.90;;;;;;4719510;30;20060;-80
2020/12/15 03:15:18;;;;;;;9.98;8.00;;;1.20;99.90;;;;;;4719140;30;20052;-80
2020/12/15 03:17:47;;;;;;;9.73;7.85;;;1.20;99.90;;;;;;4717417;30;20052;-80
2020/12/15 03:20:16;;;;;;;10.70;8.35;;;1.20;99.90;;;;;;4718025;30;20106;-80
2020/12/15 03:22:45;;;;;;;10.20;7.95;;;1.20;99.90;;;;;;4732934;30;20468;-80
2020/12/15 03:25:19;;;;;;;9.63;7.53;;;1.30;99.90;;;;;;4732491;30;20063;-80
2020/12/15 03:27:52;;;;;;;11.63;7.88;;;1.30;99.90;;;;;;4731627;30;20135;-80
2020/12/15 03:30:29;;;;;;;10.20;8.93;;;1.30;99.90;;;;;;4732696;30;20126;-80
2020/12/15 03:32:56;;;;;;;9.95;8.25;;;1.30;99.90;;;;;;4717834;30;20654;-80
2020/12/15 03:35:24;;;;;;;10.07;8.15;;;1.30;99.90;;;;;;4732289;30;20059;-80
2020/12/15 03:38:01;;;;;;;13.00;8.68;;;1.30;99.90;;;;;;4718577;30;20421;-80
2020/12/15 03:40:37;;;;;;;11.13;9.10;;;1.40;99.90;;;;;;4718949;30;20156;-80
2020/12/15 03:43:38;;;;;;;11.73;8.63;;;1.30;99.90;;;;;;4724942;30;20074;-80
2020/12/15 03:46:22;;;;;;;11.85;8.57;;;1.20;99.90;;;;;;4719781;30;20056;-80
2020/12/15 03:48:53;;;;;;;14.23;8.43;;;1.20;99.90;;;;;;4731552;30;20151;-80
2020/12/15 03:51:20;;;;;;;11.07;8.07;;;1.20;99.90;;;;;;4732131;30;20063;-80
2020/12/15 03:54:06;;;;;;;10.93;7.90;;;1.20;99.90;;;;;;4735003;30;20141;-80
2020/12/15 03:56:44;;;;;;;12.10;8.48;;;1.20;99.90;;;;;;4719550;30;20139;-80
2020/12/15 03:59:12;;;;;;;10.55;8.15;;;1.20;99.90;;;;;;4731378;30;20056;-80
2020/12/15 04:01:40;;;;;;;11.15;8.40;;;1.20;99.90;;;;;;4732480;30;20203;-80
2020/12/15 04:04:12;;;;;;;17.05;9.63;;;1.20;99.90;;;;;;4718131;30;20052;-80
2020/12/15 04:06:44;;;;;;;14.80;10.20;;;1.20;99.90;;;;;;4718484;30;20060;-80
2020/12/15 04:09:21;;;;;;;12.52;9.40;;;1.20;99.90;;;;;;4731459;30;20071;-80
2020/12/15 04:11:49;;;;;;;13.32;8.90;;;1.30;99.90;;;;;;4717526;30;20587;-80
2020/12/15 04:14:20;;;;;;;12.00;8.60;;;1.30;99.90;;;;;;4732257;30;20048;-80
2020/12/15 04:16:47;;;;;;;12.65;8.43;;;1.40;99.90;;;;;;4732130;30;20052;-80
2020/12/15 04:19:16;;;;;;;12.80;9.15;;;1.40;99.90;;;;;;4731556;30;20186;-80
2020/12/15 04:21:43;;;;;;;33.40;20.75;;;1.40;99.90;;;;;;4717698;30;20075;-80
2020/12/15 04:24:13;;;;;;;39.25;25.75;;;1.40;99.90;;;;;;4732018;30;20049;-80
2020/12/15 04:26:53;;;;;;;24.60;16.08;;;1.30;99.90;;;;;;4731973;30;20052;-80
2020/12/15 04:29:22;;;;;;;17.27;12.10;;;1.30;99.90;;;;;;4716822;30;20413;-80
2020/12/15 04:32:04;;;;;;;12.73;9.20;;;1.40;99.90;;;;;;4719734;30;20059;-80
2020/12/15 04:34:41;;;;;;;13.30;8.38;;;1.30;99.90;;;;;;4719745;30;20571;-80
2020/12/15 04:37:08;;;;;;;11.50;7.70;;;1.40;99.90;;;;;;4735360;30;20055;-80
2020/12/15 04:39:45;;;;;;;25.92;15.93;;;1.30;99.90;;;;;;4721306;30;20045;-80
2020/12/15 04:42:18;;;;;;;19.23;12.20;;;1.30;99.90;;;;;;4721940;30;20044;-80
2020/12/15 04:44:47;;;;;;;11.63;8.50;;;1.30;99.90;;;;;;4721041;30;20086;-80
2020/12/15 04:47:23;;;;;;;12.57;9.13;;;1.20;99.90;;;;;;4735172;30;20056;-80
2020/12/15 04:50:09;;;;;;;15.00;9.23;;;1.20;99.90;;;;;;4734593;30;20052;-80
2020/12/15 04:53:13;;;;;;;13.82;9.73;;;1.20;99.90;;;;;;4732832;30;20056;-80
2020/12/15 04:55:57;;;;;;;13.85;9.15;;;1.20;99.90;;;;;;4735475;30;20130;-80
2020/12/15 04:58:32;;;;;;;25.50;13.70;;;1.20;99.90;;;;;;4734678;30;20048;-80
2020/12/15 05:01:05;;;;;;;23.42;12.57;;;1.20;99.90;;;;;;4735469;30;20083;-80
2020/12/15 05:03:53;;;;;;;18.85;10.70;;;1.20;99.90;;;;;;4737975;30;20054;-80
2020/12/15 05:06:27;;;;;;;16.70;11.35;;;1.20;99.90;;;;;;4721171;30;20055;-80
2020/12/15 05:08:58;;;;;;;13.57;9.80;;;1.20;99.90;;;;;;4734612;30;20470;-80
2020/12/15 05:11:31;;;;;;;13.90;9.97;;;1.20;99.90;;;;;;4734966;30;20052;-80
2020/12/15 05:14:17;;;;;;;10.85;8.65;;;1.20;99.90;;;;;;4724783;30;20305;-78
2020/12/15 05:16:45;;;;;;;14.15;10.63;;;1.20;99.90;;;;;;4723538;30;20056;-78
2020/12/15 05:19:29;;;;;;;13.63;10.02;;;1.20;99.90;;;;;;4722466;30;20044;-78
2020/12/15 05:22:00;;;;;;;22.83;13.13;;;1.10;99.90;;;;;;4721076;30;20110;-78
2020/12/15 05:24:36;;;;;;;13.73;9.73;;;1.10;99.90;;;;;;4722316;30;20084;-80
2020/12/15 05:27:04;;;;;;;10.23;8.35;;;1.10;99.90;;;;;;4721284;30;20052;-80
2020/12/15 05:29:51;;;;;;;11.90;8.55;;;1.00;99.90;;;;;;4734329;30;20060;-81
2020/12/15 05:32:28;;;;;;;12.10;8.80;;;1.10;99.90;;;;;;4736605;30;20060;-81
2020/12/15 05:35:14;;;;;;;11.68;8.43;;;1.10;99.90;;;;;;4740580;30;20488;-82
2020/12/15 05:38:01;;;;;;;10.43;7.55;;;1.10;99.90;;;;;;4740217;30;20071;-81
2020/12/15 05:41:05;;;;;;;;;;;1.00;99.90;;;;;;4716414;30;20163;-81
2020/12/15 05:43:44;;;;;;;13.35;8.15;;;1.10;99.90;;;;;;4735026;30;19926;-82
2020/12/15 05:46:17;;;;;;;11.65;8.82;;;1.10;99.90;;;;;;4726677;30;20109;-82
2020/12/15 05:48:44;;;;;;;15.52;10.48;;;1.10;99.90;;;;;;4740125;30;20052;-81
2020/12/15 05:52:08;;;;;;;14.48;10.45;;;1.10;99.90;;;;;;4732525;30;20060;-83
2020/12/15 05:55:19;;;;;;;14.57;9.82;;;1.20;99.90;;;;;;4764684;30;20055;-81
2020/12/15 06:01:46;;;;;;;12.77;8.98;;;1.10;99.90;;;;;;4745663;30;20047;-82
2020/12/15 06:04:18;;;;;;;12.95;8.70;;;1.10;99.90;;;;;;4741488;30;20594;-82
2020/12/15 06:06:46;;;;;;;15.57;10.85;;;1.10;99.90;;;;;;4741902;30;20580;-81
2020/12/15 06:09:17;;;;;;;14.93;9.95;;;1.10;99.90;;;;;;4758283;30;20056;-81
2020/12/15 06:11:48;;;;;;;12.80;9.98;;;1.10;99.90;;;;;;4732411;30;20056;-82
2020/12/15 06:14:21;;;;;;;15.73;11.15;;;1.10;99.90;;;;;;4733221;30;20060;-81
2020/12/15 06:17:03;;;;;;;13.18;10.45;;;1.10;99.90;;;;;;4741906;30;20052;-82
2020/12/15 06:19:31;;;;;;;17.50;12.02;;;1.10;99.90;;;;;;4741132;30;20052;-82
2020/12/15 06:22:01;;;;;;;16.45;11.25;;;1.10;99.90;;;;;;4713159;30;20049;-82
2020/12/15 06:24:38;;;;;;;16.25;11.35;;;1.10;99.90;;;;;;4741346;30;20061;-82
2020/12/15 06:27:13;;;;;;;17.98;11.25;;;1.10;99.90;;;;;;4730776;30;20064;-82
2020/12/15 06:29:51;;;;;;;15.90;10.05;;;1.10;99.90;;;;;;4730268;30;20337;-81
2020/12/15 06:32:26;;;;;;;18.85;12.35;;;1.10;99.90;;;;;;4723528;30;20048;-80
2020/12/15 06:35:10;;;;;;;20.60;14.57;;;1.10;99.90;;;;;;4705840;30;20697;-81
2020/12/15 06:37:43;;;;;;;18.83;12.55;;;1.00;99.90;;;;;;4709178;30;20390;-81
2020/12/15 06:40:14;;;;;;;16.95;11.70;;;1.10;99.90;;;;;;4732557;30;20053;-81
2020/12/15 06:42:49;;;;;;;18.33;11.80;;;1.10;99.90;;;;;;4717896;30;20059;-81
2020/12/15 06:45:22;;;;;;;18.40;12.23;;;1.00;99.90;;;;;;4732118;30;20048;-81
2020/12/15 06:48:03;;;;;;;15.75;10.98;;;1.00;99.90;;;;;;4731914;30;20148;-82
2020/12/15 06:50:42;;;;;;;19.15;10.88;;;1.00;99.90;;;;;;4732084;30;20052;-81
2020/12/15 06:53:12;;;;;;;16.67;11.05;;;1.00;99.90;;;;;;4717809;30;20059;-81
2020/12/15 06:55:43;;;;;;;14.85;10.98;;;1.00;99.90;;;;;;4717127;30;20048;-81
2020/12/15 06:58:22;;;;;;;14.63;10.65;;;0.90;99.90;;;;;;4716471;30;20044;-82
2020/12/15 07:00:50;;;;;;;14.07;9.82;;;1.00;99.90;;;;;;4719386;30;20052;-81
2020/12/15 07:03:37;;;;;;;15.27;10.55;;;0.90;99.90;;;;;;4739591;30;20139;-81
2020/12/15 07:06:16;;;;;;;15.52;11.77;;;0.90;99.90;;;;;;4731850;30;20117;-81
2020/12/15 07:09:02;;;;;;;15.38;11.13;;;0.90;99.90;;;;;;4717930;30;20059;-81
2020/12/15 07:11:33;;;;;;;15.65;10.85;;;0.90;99.90;;;;;;4720620;30;20068;-82
2020/12/15 07:14:06;;;;;;;17.63;11.80;;;0.90;99.90;;;;;;4720615;30;20056;-81
2020/12/15 07:16:40;;;;;;;13.00;9.73;;;0.90;99.90;;;;;;4724038;30;20055;-81
2020/12/15 07:19:12;;;;;;;11.30;9.23;;;0.80;99.90;;;;;;4725725;30;20091;-81
2020/12/15 07:21:41;;;;;;;13.88;10.00;;;0.80;99.90;;;;;;4732745;30;20470;-81
2020/12/15 07:24:12;;;;;;;11.05;9.07;;;0.80;99.90;;;;;;4718656;30;20055;-80
2020/12/15 07:26:40;;;;;;;10.75;8.38;;;0.80;99.90;;;;;;4719925;30;20056;-81
2020/12/15 07:29:07;;;;;;;9.85;7.43;;;0.80;99.90;;;;;;4718942;30;20058;-81
2020/12/15 07:31:39;;;;;;;9.20;7.18;;;0.80;99.90;;;;;;4731488;30;20048;-83
2020/12/15 07:34:09;;;;;;;7.57;6.68;;;0.70;99.90;;;;;;4718411;30;20056;-80
2020/12/15 07:36:37;;;;;;;8.55;6.78;;;0.80;99.90;;;;;;4718562;30;20520;-81
2020/12/15 07:39:10;;;;;;;6.72;5.63;;;0.80;99.90;;;;;;4732582;30;20050;-81
2020/12/15 07:41:42;;;;;;;8.75;6.78;;;0.80;99.90;;;;;;4733783;30;20079;-81
2020/12/15 07:44:12;;;;;;;8.63;6.78;;;0.70;99.90;;;;;;4717592;30;20052;-81
2020/12/15 07:46:44;;;;;;;10.13;8.68;;;0.70;99.90;;;;;;4732499;30;20071;-81
2020/12/15 07:49:11;;;;;;;9.73;7.97;;;0.70;99.90;;;;;;4732809;30;20139;-81
2020/12/15 07:51:38;;;;;;;10.23;7.30;;;0.70;99.90;;;;;;4718754;30;20056;-81
2020/12/15 07:54:05;;;;;;;10.65;7.22;;;0.70;99.90;;;;;;4732595;30;20088;-80
2020/12/15 07:56:37;;;;;;;11.43;7.72;;;0.80;99.90;;;;;;4732996;30;20544;-81
2020/12/15 07:59:04;;;;;;;11.77;8.07;;;0.80;99.90;;;;;;4732708;30;20056;-80
2020/12/15 08:01:36;;;;;;;10.48;7.72;;;0.80;99.90;;;;;;4733734;30;20055;-81
2020/12/15 08:04:04;;;;;;;10.63;7.38;;;0.80;99.90;;;;;;4732941;30;20225;-80
2020/12/15 08:06:32;;;;;;;10.50;7.43;;;0.80;99.90;;;;;;4718384;30;20166;-81
2020/12/15 08:09:00;;;;;;;10.30;8.07;;;0.80;99.90;;;;;;4732159;30;20052;-80
2020/12/15 08:11:32;;;;;;;11.00;7.55;;;0.80;99.90;;;;;;4722624;30;20063;-82
2020/12/15 08:14:04;;;;;;;13.35;6.90;;;0.80;99.90;;;;;;4721480;30;20087;-80
2020/12/15 08:16:35;;;;;;;11.38;7.47;;;0.80;99.90;;;;;;4736117;30;20052;-81
2020/12/15 08:19:07;;;;;;;10.50;7.30;;;0.90;99.90;;;;;;4736905;30;20143;-80
2020/12/15 08:21:45;;;;;;;11.02;7.35;;;0.90;99.90;;;;;;4736151;30;20509;-81
2020/12/15 08:24:14;;;;;;;9.07;6.75;;;1.00;99.90;;;;;;4721385;30;20058;-81
2020/12/15 08:26:42;;;;;;;10.02;7.45;;;1.00;99.90;;;;;;4736217;30;20194;-81
2020/12/15 08:29:13;;;;;;;9.75;7.20;;;1.00;99.90;;;;;;4735709;30;20048;-80
2020/12/15 08:31:44;;;;;;;9.15;7.22;;;1.00;99.90;;;;;;4736460;30;20576;-81
2020/12/15 08:34:11;;;;;;;10.00;8.20;;;1.10;99.90;;;;;;4721108;30;20056;-81
2020/12/15 08:36:53;;;;;;;11.95;8.70;;;1.10;99.90;;;;;;4722077;30;20142;-81
2020/12/15 08:39:30;;;;;;;10.85;7.75;;;1.20;99.90;;;;;;4735937;30;20083;-81
2020/12/15 08:41:58;;;;;;;9.13;7.75;;;1.20;99.90;;;;;;4736408;30;20087;-81
2020/12/15 08:44:26;;;;;;;10.23;7.93;;;1.30;99.90;;;;;;4736197;30;20063;-80
2020/12/15 08:46:56;;;;;;;9.98;7.97;;;1.40;99.90;;;;;;4723278;30;20060;-82
2020/12/15 08:49:28;;;;;;;10.85;7.95;;;1.50;99.90;;;;;;4722074;30;20056;-81
2020/12/15 08:51:55;;;;;;;9.18;7.43;;;1.50;99.90;;;;;;4722319;30;20056;-79
2020/12/15 08:54:26;;;;;;;9.05;7.32;;;1.60;99.90;;;;;;4719996;30;20094;-79
2020/12/15 08:56:57;;;;;;;10.70;8.45;;;1.70;99.90;;;;;;4735269;30;20052;-80
2020/12/15 08:59:25;;;;;;;19.15;12.20;;;1.80;99.90;;;;;;4734564;30;20044;-79
2020/12/15 09:02:55;;;;;;;18.17;11.80;;;1.80;99.90;;;;;;4742866;30;20536;-81
2020/12/15 11:02:03;;;;;;;14.90;11.00;;;4.60;99.90;;;;;;5568819;24;20058;-81
2020/12/15 11:49:08;;;;;;;17.00;12.75;;;4.90;99.90;;;;;;4719452;30;20080;-83
2020/12/15 11:52:25;;;;;;;17.88;13.68;;;4.90;99.90;;;;;;4683058;30;20077;-76
2020/12/15 12:08:07;;;;;;;14.63;11.02;;;5.10;99.90;;;;;;4704969;30;20051;-81
2020/12/15 12:10:35;;;;;;;19.95;15.25;;;5.20;99.90;;;;;;4685904;30;20513;-82
2020/12/15 12:13:03;;;;;;;22.05;17.95;;;5.20;99.90;;;;;;4694814;30;20152;-82
2020/12/15 12:15:30;;;;;;;18.92;13.90;;;5.20;99.90;;;;;;4858276;24;20127;-78
2020/12/15 12:17:57;;;;;;;13.60;11.60;;;5.30;99.90;;;;;;4739886;30;20044;-82
2020/12/15 12:20:25;;;;;;;14.82;12.43;;;5.50;99.90;;;;;;4756191;30;20455;-82
2020/12/15 12:22:56;;;;;;;14.00;12.27;;;5.60;99.90;;;;;;4758664;30;20048;-82
2020/12/15 12:25:23;;;;;;;15.13;11.75;;;5.70;99.90;;;;;;4735274;30;20491;-81
2020/12/15 12:32:05;;;;;;;13.05;9.95;;;5.80;99.90;;;;;;4742509;30;20075;-82
2020/12/15 12:36:00;;;;;;;17.40;11.23;;;5.80;99.90;;;;;;4694965;30;20085;-82
2020/12/15 13:33:17;;;;;;;12.57;9.48;;;6.20;99.90;;;;;;5503063;24;20056;-80
2020/12/15 13:35:45;;;;;;;12.73;9.85;;;6.20;99.90;;;;;;4738448;30;20531;-81
2020/12/15 13:38:12;;;;;;;16.25;10.30;;;6.20;99.90;;;;;;4738283;30;20052;-81
2020/12/15 13:40:39;;;;;;;12.40;9.63;;;6.10;99.90;;;;;;4725474;30;20056;-80
2020/12/15 13:43:06;;;;;;;11.60;9.45;;;6.10;99.90;;;;;;4722275;30;20084;-78
2020/12/15 13:45:32;;;;;;;10.13;8.70;;;6.20;99.90;;;;;;4734537;30;20452;-78
2020/12/15 13:48:03;;;;;;;14.40;9.93;;;6.20;99.90;;;;;;4719792;30;20048;-79
2020/12/15 13:50:35;;;;;;;14.05;9.75;;;6.20;99.90;;;;;;4734215;30;20044;-78
2020/12/15 13:53:06;;;;;;;11.90;9.77;;;6.20;99.90;;;;;;4735503;30;20074;-78
2020/12/15 13:55:40;;;;;;;15.35;11.57;;;6.20;99.90;;;;;;4734856;30;20129;-79
2020/12/15 13:58:07;;;;;;;14.85;11.25;;;6.30;99.90;;;;;;4720038;30;20525;-80
2020/12/15 14:00:35;;;;;;;14.65;11.40;;;6.30;99.90;;;;;;4735146;30;20048;-78
2020/12/15 14:03:02;;;;;;;15.63;12.07;;;6.30;99.90;;;;;;4733948;30;20052;-79
2020/12/15 14:05:29;;;;;;;13.32;10.45;;;6.40;99.90;;;;;;4731939;30;20052;-78
2020/12/15 14:07:55;;;;;;;14.50;10.95;;;6.40;99.90;;;;;;4748066;30;20132;-78
2020/12/15 14:10:22;;;;;;;15.05;11.13;;;6.40;99.90;;;;;;4733744;30;20052;-79
2020/12/15 14:12:48;;;;;;;15.63;11.25;;;6.30;99.90;;;;;;4732860;30;20469;-78
2020/12/15 14:15:19;;;;;;;16.27;12.80;;;6.30;99.90;;;;;;4733850;30;20058;-78
2020/12/15 14:17:50;;;;;;;17.58;12.80;;;6.30;99.90;;;;;;4732737;30;20059;-78
2020/12/15 14:20:17;;;;;;;16.20;13.18;;;6.30;99.90;;;;;;4732927;30;20056;-78
2020/12/15 14:22:43;;;;;;;18.80;12.38;;;6.30;99.90;;;;;;4733395;30;20048;-78
2020/12/15 14:25:14;;;;;;;19.15;12.93;;;6.30;99.90;;;;;;4720043;30;20048;-78
2020/12/15 14:27:41;;;;;;;16.95;12.40;;;6.30;99.90;;;;;;4733111;30;20139;-78
2020/12/15 14:30:07;;;;;;;15.00;11.48;;;6.30;99.90;;;;;;4719086;30;20131;-78
2020/12/15 14:32:34;;;;;;;14.90;11.48;;;6.30;99.90;;;;;;4732319;30;20082;-78
2020/12/15 14:35:01;;;;;;;16.58;13.80;;;6.30;99.90;;;;;;4732361;30;20525;-78
2020/12/15 14:37:32;;;;;;;16.77;12.15;;;6.30;99.90;;;;;;4719544;30;20113;-79
2020/12/15 14:39:58;;;;;;;17.33;11.85;;;6.30;99.90;;;;;;4717704;30;20075;-78
2020/12/15 14:42:25;;;;;;;19.08;12.27;;;6.20;99.90;;;;;;4732992;30;20049;-78
2020/12/15 14:44:57;;;;;;;15.20;11.57;;;6.20;99.90;;;;;;4719772;30;20531;-78
2020/12/15 14:47:28;;;;;;;13.95;11.57;;;6.20;99.90;;;;;;4732881;30;20074;-78
2020/12/15 14:50:00;;;;;;;19.00;14.30;;;6.20;99.90;;;;;;4732935;30;20059;-78
2020/12/15 14:52:36;;;;;;;20.02;13.75;;;6.10;99.90;;;;;;4732550;30;20062;-78
2020/12/15 14:55:08;;;;;;;16.73;12.75;;;6.10;99.90;;;;;;4733026;30;20217;-77
2020/12/15 14:57:40;;;;;;;16.95;11.35;;;6.10;99.90;;;;;;4732349;30;20074;-79
2020/12/15 15:00:11;;;;;;;16.00;11.90;;;6.10;99.90;;;;;;4732548;30;20082;-78
2020/12/15 15:02:37;;;;;;;15.13;11.75;;;6.00;99.90;;;;;;4731880;30;20487;-78
2020/12/15 15:05:08;;;;;;;15.52;11.75;;;6.10;99.90;;;;;;4732915;30;20044;-78
2020/12/15 15:07:35;;;;;;;14.95;11.05;;;6.00;99.90;;;;;;4732288;30;20060;-79
2020/12/15 15:10:06;;;;;;;15.98;11.55;;;6.00;99.90;;;;;;4731960;30;20056;-78
2020/12/15 15:12:37;;;;;;;15.25;10.75;;;6.00;99.90;;;;;;4732186;30;20054;-78
2020/12/15 15:15:08;;;;;;;15.05;11.50;;;5.90;99.90;;;;;;4732346;30;20409;-77
2020/12/15 15:17:34;;;;;;;14.07;11.00;;;5.90;99.90;;;;;;4731799;30;20078;-78
2020/12/15 15:20:01;;;;;;;14.68;11.13;;;5.90;99.90;;;;;;4731086;30;20131;-78
2020/12/15 15:22:32;;;;;;;14.90;12.07;;;5.80;99.90;;;;;;4732553;30;20044;-79
2020/12/15 15:25:04;;;;;;;14.50;11.23;;;5.70;99.90;;;;;;4732883;30;20499;-78
2020/12/15 15:27:31;;;;;;;12.75;10.65;;;5.60;99.90;;;;;;4717867;30;20070;-78
2020/12/15 15:29:58;;;;;;;15.40;10.77;;;5.50;99.90;;;;;;4732478;30;20110;-78
2020/12/15 15:32:30;;;;;;;13.52;11.80;;;5.50;99.90;;;;;;4734260;30;20130;-79
2020/12/15 15:35:02;;;;;;;13.55;10.55;;;5.40;99.90;;;;;;4733647;30;20054;-78
2020/12/15 15:37:33;;;;;;;16.45;11.23;;;5.30;99.90;;;;;;4735115;30;20052;-78
2020/12/15 15:40:00;;;;;;;15.40;11.20;;;5.20;99.90;;;;;;4734335;30;20087;-79
2020/12/15 15:42:27;;;;;;;14.80;11.75;;;5.10;99.90;;;;;;4734784;30;20083;-78
2020/12/15 15:44:55;;;;;;;17.27;13.82;;;5.10;99.90;;;;;;4720027;30;20056;-78
2020/12/15 15:47:26;;;;;;;14.57;11.40;;;5.00;99.90;;;;;;4762867;30;20139;-77
2020/12/15 15:49:52;;;;;;;13.98;10.77;;;4.90;99.90;;;;;;4718612;30;20094;-78
2020/12/15 15:52:24;;;;;;;16.48;11.23;;;4.90;99.90;;;;;;4732426;30;20052;-78
2020/12/15 15:54:55;;;;;;;16.73;12.25;;;4.90;99.90;;;;;;4718867;30;20058;-78
2020/12/15 15:57:22;;;;;;;16.95;12.65;;;4.80;99.90;;;;;;4732527;30;20052;-78
2020/12/15 15:59:53;;;;;;;19.02;12.63;;;4.80;99.90;;;;;;4717787;30;20045;-79
2020/12/15 16:02:20;;;;;;;17.55;12.98;;;4.80;99.90;;;;;;4731998;30;20049;-78
2020/12/15 16:04:51;;;;;;;14.38;11.82;;;4.80;99.90;;;;;;4731177;30;20501;-78
2020/12/15 16:07:23;;;;;;;20.15;11.38;;;4.80;99.90;;;;;;4732149;30;20528;-79
2020/12/15 16:09:54;;;;;;;14.45;11.15;;;4.70;99.90;;;;;;4730058;30;20206;-79
2020/12/15 16:12:26;;;;;;;15.18;11.93;;;4.80;99.90;;;;;;4729966;30;20143;-78
2020/12/15 16:14:52;;;;;;;15.30;11.18;;;4.80;99.90;;;;;;4717484;30;20052;-78
2020/12/15 16:17:19;;;;;;;14.27;11.07;;;4.80;99.90;;;;;;4732791;30;20055;-78
2020/12/15 16:19:45;;;;;;;16.27;11.25;;;4.80;99.90;;;;;;4731340;30;20839;-79
2020/12/15 16:22:11;;;;;;;15.27;11.75;;;4.80;99.90;;;;;;4732400;30;20068;-79
2020/12/15 16:24:43;;;;;;;15.80;11.20;;;4.80;99.90;;;;;;4718823;30;20111;-78
2020/12/15 16:27:10;;;;;;;16.35;11.57;;;4.80;99.90;;;;;;4733526;30;20139;-78
2020/12/15 16:29:37;;;;;;;17.50;11.82;;;4.80;99.90;;;;;;4734372;30;20052;-78
2020/12/15 16:32:03;;;;;;;14.20;11.20;;;4.80;99.90;;;;;;4735196;30;20110;-78
2020/12/15 16:34:29;;;;;;;14.07;10.70;;;4.70;99.90;;;;;;4736390;30;20056;-79
2020/12/15 16:37:01;;;;;;;18.08;12.10;;;4.70;99.90;;;;;;4737048;30;20048;-79
2020/12/15 16:39:28;;;;;;;16.30;12.25;;;4.70;99.90;;;;;;4735306;30;20429;-77
2020/12/15 16:42:02;;;;;;;16.48;11.50;;;4.60;99.90;;;;;;4735406;30;20048;-79
2020/12/15 16:44:28;;;;;;;16.77;12.02;;;4.60;99.90;;;;;;4734661;30;20080;-78
2020/12/15 16:46:57;;;;;;;17.63;11.98;;;4.70;99.90;;;;;;4719755;30;20056;-78
2020/12/15 16:49:28;;;;;;;15.93;12.00;;;4.80;99.90;;;;;;4735328;30;20106;-78
2020/12/15 16:51:54;;;;;;;15.75;12.80;;;4.80;99.90;;;;;;4734369;30;20106;-78
2020/12/15 16:54:22;;;;;;;15.00;11.68;;;4.80;99.90;;;;;;4719896;30;20056;-78
2020/12/15 16:56:52;;;;;;;14.45;12.27;;;4.90;99.90;;;;;;4722623;30;20060;-78
2020/12/15 16:59:23;;;;;;;17.23;12.55;;;4.90;99.90;;;;;;4736811;30;20131;-78
2020/12/15 17:01:50;;;;;;;14.95;10.65;;;4.90;99.90;;;;;;4739010;30;20440;-79
2020/12/15 17:04:16;;;;;;;14.10;11.13;;;4.90;99.90;;;;;;4736685;30;20436;-78
2020/12/15 17:06:43;;;;;;;14.20;10.85;;;4.90;99.90;;;;;;4736266;30;20119;-79
2020/12/15 17:09:10;;;;;;;17.15;12.65;;;4.90;99.90;;;;;;4735475;30;20067;-79